createdAt,value
2022-09-21T00:01:54.146Z,100515.78
2022-09-21T00:04:20.893Z,100513.78
2022-09-21T00:06:47.948Z,100519.50
2022-09-21T00:09:15.222Z,100519.41
2022-09-21T00:11:42.191Z,100509.47
2022-09-21T00:14:11.662Z,100518.28
2022-09-21T00:16:39.685Z,100517.06
2022-09-21T00:19:06.806Z,100516.94
2022-09-21T00:21:34.397Z,100517.88
2022-09-21T00:24:02.703Z,100518.22
2022-09-21T00:26:29.645Z,100521.78
2022-09-21T00:28:57.884Z,100522.13
2022-09-21T00:31:25.471Z,100517.91
2022-09-21T00:33:52.897Z,100519.72
2022-09-21T00:36:21.615Z,100525.22
2022-09-21T00:38:56.670Z,100528.78
2022-09-21T00:41:25.146Z,100530.41
2022-09-21T00:44:10.825Z,100531.56
2022-09-21T00:46:39.926Z,100533.50
2022-09-21T00:49:07.369Z,100533.84
2022-09-21T00:51:34.366Z,100538.88
2022-09-21T00:54:04.828Z,100539.66
2022-09-21T00:56:31.569Z,100545.34
2022-09-21T00:58:58.548Z,100548.28
2022-09-21T01:01:25.687Z,100538.94
2022-09-21T01:03:53.660Z,100545.22
2022-09-21T01:06:22.258Z,100540.56
2022-09-21T01:08:53.846Z,100539.31
2022-09-21T01:11:34.475Z,100548.72
2022-09-21T01:14:07.324Z,100553.06
2022-09-21T01:16:34.718Z,100544.16
2022-09-21T01:19:20.655Z,100543.97
2022-09-21T01:21:54.191Z,100543.78
2022-09-21T01:24:38.866Z,100539.25
2022-09-21T01:27:35.896Z,100543.28
2022-09-21T01:30:05.945Z,100534.06
2022-09-21T01:32:42.249Z,100528.28
2022-09-21T01:35:13.015Z,100533.81
2022-09-21T01:37:43.623Z,100532.38
2022-09-21T01:40:13.835Z,100525.09
2022-09-21T01:42:41.616Z,100531.63
2022-09-21T01:45:10.837Z,100532.09
2022-09-21T01:47:39.216Z,100529.06
2022-09-21T01:50:08.526Z,100530.38
2022-09-21T01:52:43.424Z,100522.13
2022-09-21T01:55:13.106Z,100521.69
2022-09-21T01:57:55.199Z,100529.78
2022-09-21T02:00:23.046Z,100534.28
2022-09-21T02:02:52.021Z,100528.16
2022-09-21T02:05:20.200Z,100526.53
2022-09-21T02:07:48.545Z,100523.94
2022-09-21T02:10:19.409Z,100527.88
2022-09-21T02:12:47.158Z,100527.56
2022-09-21T02:15:16.579Z,100529.53
2022-09-21T02:17:43.350Z,100536.63
2022-09-21T02:20:15.140Z,100530.66
2022-09-21T02:22:49.666Z,100534.22
2022-09-21T02:25:18.677Z,100532.28
2022-09-21T02:28:15.115Z,100525.66
2022-09-21T02:30:44.763Z,100538.59
2022-09-21T02:33:15.040Z,100536.97
2022-09-21T02:35:54.220Z,100532.59
2022-09-21T02:38:21.228Z,100536.16
2022-09-21T02:40:54.138Z,100537.31
2022-09-21T02:43:23.918Z,100537.31
2022-09-21T02:45:55.658Z,100544.59
2022-09-21T02:48:28.018Z,100538.13
2022-09-21T02:50:57.282Z,100539.91
2022-09-21T02:53:26.189Z,100542.88
2022-09-21T02:55:56.586Z,100542.19
2022-09-21T02:58:25.814Z,100543.81
2022-09-21T03:00:52.945Z,100543.88
2022-09-21T03:03:22.154Z,100546.09
2022-09-21T03:05:51.054Z,100553.22
2022-09-21T03:08:38.346Z,100549.03
2022-09-21T03:11:05.947Z,100557.13
2022-09-21T03:13:32.707Z,100566.00
2022-09-21T03:16:02.360Z,100566.00
2022-09-21T03:18:32.138Z,100569.56
2022-09-21T03:20:59.257Z,100576.19
2022-09-21T03:23:26.425Z,100573.91
2022-09-21T03:25:55.085Z,100585.22
2022-09-21T03:28:22.282Z,100586.84
2022-09-21T03:30:50.129Z,100588.31
2022-09-21T03:33:18.087Z,100585.56
2022-09-21T03:35:45.003Z,100580.06
2022-09-21T03:38:11.912Z,100591.72
2022-09-21T03:40:40.365Z,100589.13
2022-09-21T03:43:08.220Z,100591.34
2022-09-21T03:45:34.913Z,100591.34
2022-09-21T03:48:02.241Z,100594.59
2022-09-21T03:50:29.241Z,100590.75
2022-09-21T03:52:56.591Z,100597.53
2022-09-21T03:55:23.820Z,100598.78
2022-09-21T03:57:50.805Z,100606.03
2022-09-21T04:00:18.117Z,100609.41
2022-09-21T04:02:45.268Z,100594.41
2022-09-21T04:05:14.806Z,100597.97
2022-09-21T04:07:42.376Z,100605.53
2022-09-21T04:10:14.521Z,100600.34
2022-09-21T04:12:43.408Z,100609.91
2022-09-21T04:15:19.617Z,100607.81
2022-09-21T04:17:46.780Z,100603.28
2022-09-21T04:20:13.793Z,100599.75
2022-09-21T04:22:43.501Z,100603.44
2022-09-21T04:25:11.051Z,100607.00
2022-09-21T04:27:38.265Z,100604.56
2022-09-21T04:30:06.152Z,100608.13
2022-09-21T04:32:32.942Z,100613.31
2022-09-21T04:35:00.003Z,100614.59
2022-09-21T04:37:27.373Z,100616.19
2022-09-21T04:39:54.142Z,100624.94
2022-09-21T04:42:21.273Z,100626.53
2022-09-21T04:44:48.021Z,100621.03
2022-09-21T04:47:15.177Z,100617.66
2022-09-21T04:49:42.331Z,100617.66
2022-09-21T04:52:13.754Z,100632.84
2022-09-21T04:54:44.447Z,100632.34
2022-09-21T04:57:11.186Z,100635.09
2022-09-21T04:59:38.200Z,100632.34
2022-09-21T05:02:05.298Z,100624.09
2022-09-21T05:04:32.362Z,100618.44
2022-09-21T05:07:00.499Z,100629.44
2022-09-21T05:09:46.197Z,100635.25
2022-09-21T05:12:13.042Z,100643.31
2022-09-21T05:14:41.189Z,100646.22
2022-09-21T05:17:08.011Z,100649.28
2022-09-21T05:19:34.695Z,100655.84
2022-09-21T05:22:02.243Z,100644.13
2022-09-21T05:24:29.378Z,100657.69
2022-09-21T05:27:36.228Z,100660.22
2022-09-21T05:30:03.817Z,100663.59
2022-09-21T05:32:36.907Z,100655.94
2022-09-21T05:35:04.927Z,100669.50
2022-09-21T05:37:44.373Z,100675.00
2022-09-21T05:40:12.012Z,100668.25
2022-09-21T05:42:39.074Z,100669.50
2022-09-21T05:45:06.334Z,100667.59
2022-09-21T05:47:49.052Z,100673.66
2022-09-21T05:50:25.669Z,100675.44
2022-09-21T05:53:11.126Z,100687.94
2022-09-21T05:55:40.969Z,100682.66
2022-09-21T05:58:31.035Z,100694.13
2022-09-21T06:01:03.840Z,100696.38
2022-09-21T06:03:32.479Z,100696.97
2022-09-21T06:05:59.958Z,100700.88
2022-09-21T06:08:26.889Z,100702.59
2022-09-21T06:10:54.852Z,100700.88
2022-09-21T06:13:21.667Z,100699.81
2022-09-21T06:15:48.469Z,100699.72
2022-09-21T06:18:17.986Z,100706.31
2022-09-21T06:20:45.450Z,100707.28
2022-09-21T06:23:13.172Z,100711.94
2022-09-21T06:25:40.340Z,100716.06
2022-09-21T06:28:09.551Z,100705.41
2022-09-21T06:30:36.719Z,100707.53
2022-09-21T06:33:04.552Z,100708.84
2022-09-21T06:35:32.119Z,100715.75
2022-09-21T06:37:59.691Z,100711.56
2022-09-21T06:40:30.609Z,100710.16
2022-09-21T06:42:58.313Z,100719.75
2022-09-21T06:45:25.622Z,100720.50
2022-09-21T06:47:52.893Z,100707.59
2022-09-21T06:50:20.157Z,100716.91
2022-09-21T06:52:47.025Z,100720.69
2022-09-21T06:55:14.326Z,100717.63
2022-09-21T06:57:41.286Z,100721.38
2022-09-21T07:00:09.517Z,100710.66
2022-09-21T07:02:36.565Z,100724.59
2022-09-21T07:05:03.879Z,100721.59
2022-09-21T07:07:32.396Z,100724.59
2022-09-21T07:10:13.151Z,100723.78
2022-09-21T07:12:43.268Z,100727.16
2022-09-21T07:15:10.661Z,100726.47
2022-09-21T07:17:39.398Z,100729.75
2022-09-21T07:20:07.971Z,100727.25
2022-09-21T07:22:35.749Z,100722.72
2022-09-21T07:25:02.932Z,100730.56
2022-09-21T07:27:30.656Z,100741.00
2022-09-21T07:29:57.935Z,100732.19
2022-09-21T07:32:26.106Z,100731.97
2022-09-21T07:34:57.129Z,100740.31
2022-09-21T07:37:25.071Z,100737.75
2022-09-21T07:39:52.937Z,100743.25
2022-09-21T07:42:21.593Z,100749.84
2022-09-21T07:44:48.970Z,100747.69
2022-09-21T07:47:16.222Z,100751.31
2022-09-21T07:49:43.057Z,100743.84
2022-09-21T07:52:11.259Z,100747.16
2022-09-21T07:54:38.652Z,100745.72
2022-09-21T07:57:25.247Z,100749.34
2022-09-21T07:59:52.302Z,100752.72
2022-09-21T08:02:19.136Z,100753.94
2022-09-21T08:04:45.952Z,100753.22
2022-09-21T08:07:14.103Z,100750.69
2022-09-21T08:09:41.861Z,100755.38
2022-09-21T08:12:09.031Z,100758.03
2022-09-21T08:14:36.319Z,100748.56
2022-09-21T08:17:03.776Z,100753.78
2022-09-21T08:19:30.571Z,100766.31
2022-09-21T08:21:58.162Z,100767.75
2022-09-21T08:24:26.868Z,100764.00
2022-09-21T08:26:55.963Z,100765.84
2022-09-21T08:29:26.670Z,100768.06
2022-09-21T08:32:39.399Z,100765.16
2022-09-21T08:35:05.353Z,100757.69
2022-09-21T08:37:33.283Z,100757.69
2022-09-21T08:40:02.468Z,100758.31
2022-09-21T08:42:38.809Z,100755.56
2022-09-21T08:45:10.180Z,100759.25
2022-09-21T08:47:43.749Z,100751.69
2022-09-21T08:50:30.829Z,100748.34
2022-09-21T08:53:01.755Z,100753.41
2022-09-21T08:55:28.498Z,100746.53
2022-09-21T08:57:55.353Z,100745.06
2022-09-21T09:00:23.364Z,100742.44
2022-09-21T09:03:08.721Z,100740.31
2022-09-21T09:05:46.182Z,100734.16
2022-09-21T09:08:31.907Z,100725.72
2022-09-21T09:11:10.272Z,100729.69
2022-09-21T09:13:37.063Z,100728.56
2022-09-21T09:16:22.742Z,100733.09
2022-09-21T09:18:52.803Z,100733.34
2022-09-21T09:21:31.544Z,100724.06
2022-09-21T09:24:01.782Z,100731.66
2022-09-21T09:26:40.009Z,100721.75
2022-09-21T09:29:16.268Z,100729.03
2022-09-21T09:31:43.834Z,100719.47
2022-09-21T09:34:30.864Z,100726.94
2022-09-21T09:36:59.836Z,100727.56
2022-09-21T09:39:28.848Z,100714.06
2022-09-21T09:42:05.751Z,100726.28
2022-09-21T09:44:48.206Z,100718.81
2022-09-21T09:47:28.628Z,100719.09
2022-09-21T09:50:02.928Z,100708.22
2022-09-21T09:52:31.238Z,100720.09
2022-09-21T09:55:12.233Z,100722.47
2022-09-21T09:57:39.055Z,100715.31
2022-09-21T10:00:12.321Z,100722.66
2022-09-21T10:02:47.029Z,100715.03
2022-09-21T10:05:20.775Z,100718.09
2022-09-21T10:07:49.220Z,100710.91
2022-09-21T10:10:23.200Z,100717.44
2022-09-21T10:12:51.569Z,100711.50
2022-09-21T10:15:19.423Z,100712.75
2022-09-21T10:17:47.157Z,100712.69
2022-09-21T10:20:16.578Z,100703.81
2022-09-21T10:22:48.325Z,100710.72
2022-09-21T10:25:19.554Z,100705.16
2022-09-21T10:27:50.709Z,100704.81
2022-09-21T10:30:42.493Z,100698.03
2022-09-21T10:33:19.277Z,100697.47
2022-09-21T10:35:50.435Z,100690.59
2022-09-21T10:38:22.341Z,100698.66
2022-09-21T10:40:50.315Z,100705.19
2022-09-21T10:43:25.343Z,100709.97
2022-09-21T10:45:56.609Z,100706.66
2022-09-21T10:48:25.995Z,100704.47
2022-09-21T10:50:53.893Z,100712.06
2022-09-21T10:53:37.046Z,100713.88
2022-09-21T10:56:17.454Z,100702.56
2022-09-21T10:59:20.244Z,100702.03
2022-09-21T11:01:48.746Z,100700.94
2022-09-21T11:04:22.218Z,100695.53
2022-09-21T11:06:52.544Z,100701.78
2022-09-21T11:09:35.227Z,100700.69
2022-09-21T11:12:07.213Z,100699.97
2022-09-21T11:14:49.813Z,100701.84
2022-09-21T11:17:23.140Z,100699.00
2022-09-21T11:20:16.392Z,100699.69
2022-09-21T11:22:43.489Z,100700.16
2022-09-21T11:25:25.176Z,100692.66
2022-09-21T11:27:56.311Z,100704.81
2022-09-21T11:30:24.803Z,100705.94
2022-09-21T11:32:57.824Z,100698.47
2022-09-21T11:35:41.158Z,100697.84
2022-09-21T11:38:17.413Z,100692.59
2022-09-21T11:40:54.463Z,100692.56
2022-09-21T11:43:34.447Z,100690.81
2022-09-21T11:46:14.895Z,100682.34
2022-09-21T11:49:00.775Z,100689.41
2022-09-21T11:51:40.692Z,100688.63
2022-09-21T11:54:16.138Z,100687.97
2022-09-21T11:57:01.612Z,100689.97
2022-09-21T11:59:29.982Z,100676.72
2022-09-21T12:02:20.496Z,100668.00
2022-09-21T12:04:59.576Z,100664.91
2022-09-21T12:07:55.204Z,100664.72
2022-09-21T12:10:22.276Z,100670.63
2022-09-21T12:12:54.388Z,100669.44
2022-09-21T12:15:26.594Z,100659.91
2022-09-21T12:17:53.567Z,100655.16
2022-09-21T12:20:35.868Z,100658.25
2022-09-21T12:23:06.215Z,100657.19
2022-09-21T12:25:36.135Z,100662.16
2022-09-21T12:28:07.099Z,100663.97
2022-09-21T12:30:34.518Z,100658.81
2022-09-21T12:33:08.988Z,100656.56
2022-09-21T12:35:39.302Z,100660.75
2022-09-21T12:38:06.124Z,100656.88
2022-09-21T12:40:33.073Z,100662.66
2022-09-21T12:43:15.743Z,100647.81
2022-09-21T12:46:27.416Z,100647.25
2022-09-21T12:48:54.972Z,100646.28
2022-09-21T12:51:27.182Z,100647.25
2022-09-21T12:53:56.291Z,100650.03
2022-09-21T12:56:55.521Z,100646.72
2022-09-21T12:59:22.612Z,100642.75
2022-09-21T13:02:05.455Z,100643.84
2022-09-21T13:04:35.536Z,100634.66
2022-09-21T13:07:22.225Z,100633.94
2022-09-21T13:09:50.677Z,100620.72
2022-09-21T13:12:21.953Z,100623.53
2022-09-21T13:14:51.274Z,100620.75
2022-09-21T13:17:25.324Z,100641.13
2022-09-21T13:20:01.159Z,100628.84
2022-09-21T13:22:34.126Z,100633.78
2022-09-21T13:25:01.455Z,100631.00
2022-09-21T13:27:46.802Z,100632.47
2022-09-21T13:30:29.556Z,100628.50
2022-09-21T13:32:56.836Z,100635.88
2022-09-21T13:35:42.611Z,100637.09
2022-09-21T13:38:24.475Z,100635.53
2022-09-21T13:41:01.978Z,100639.63
2022-09-21T13:43:48.174Z,100642.06
2022-09-21T13:46:33.256Z,100639.47
2022-09-21T13:49:02.296Z,100630.50
2022-09-21T13:51:33.365Z,100626.94
2022-09-21T13:54:02.192Z,100625.94
2022-09-21T13:56:33.354Z,100621.81
2022-09-21T13:59:00.249Z,100623.31
2022-09-21T14:01:51.290Z,100627.13
2022-09-21T14:04:25.400Z,100621.50
2022-09-21T14:06:54.306Z,100625.06
2022-09-21T14:09:33.127Z,100614.81
2022-09-21T14:12:06.429Z,100614.13
2022-09-21T14:14:37.335Z,100612.88
2022-09-21T14:17:05.134Z,100606.09
2022-09-21T14:19:33.517Z,100612.41
2022-09-21T14:22:03.354Z,100614.00
2022-09-21T14:24:45.462Z,100615.13
2022-09-21T14:27:31.223Z,100616.00
2022-09-21T14:30:00.305Z,100609.69
2022-09-21T14:32:29.577Z,100617.63
2022-09-21T14:35:02.124Z,100616.28
2022-09-21T14:37:38.188Z,100611.31
2022-09-21T14:40:16.582Z,100609.69
2022-09-21T14:42:44.683Z,100614.06
2022-09-21T14:45:18.324Z,100609.28
2022-09-21T14:48:05.957Z,100618.59
2022-09-21T14:50:32.755Z,100614.06
2022-09-21T14:53:28.190Z,100615.19
2022-09-21T14:56:10.246Z,100613.84
2022-09-21T14:58:55.783Z,100606.94
2022-09-21T15:01:31.930Z,100614.81
2022-09-21T15:04:08.121Z,100610.25
2022-09-21T15:06:56.081Z,100612.41
2022-09-21T15:10:00.591Z,100613.19
2022-09-21T15:12:42.608Z,100607.16
2022-09-21T15:15:15.680Z,100606.00
2022-09-21T15:17:59.318Z,100602.59
2022-09-21T15:20:27.559Z,100604.34
2022-09-21T15:22:56.588Z,100601.84
2022-09-21T15:25:24.631Z,100606.41
2022-09-21T15:27:52.071Z,100599.91
2022-09-21T15:30:29.373Z,100603.53
2022-09-21T15:32:57.996Z,100606.53
2022-09-21T15:35:29.244Z,100600.22
2022-09-21T15:37:57.237Z,100611.94
2022-09-21T15:40:25.638Z,100614.88
2022-09-21T15:43:11.434Z,100617.47
2022-09-21T15:45:58.180Z,100618.81
2022-09-21T15:48:26.261Z,100624.50
2022-09-21T15:51:01.302Z,100618.16
2022-09-21T15:53:31.081Z,100632.13
2022-09-21T15:56:01.647Z,100623.72
2022-09-21T15:58:37.389Z,100631.91
2022-09-21T16:01:09.529Z,100641.44
2022-09-21T16:03:39.039Z,100633.22
2022-09-21T16:06:18.359Z,100628.28
2022-09-21T16:08:45.091Z,100637.78
2022-09-21T16:11:23.360Z,100644.44
2022-09-21T16:14:16.967Z,100646.28
2022-09-21T16:17:03.054Z,100650.13
2022-09-21T16:19:46.137Z,100656.16
2022-09-21T16:22:14.422Z,100649.56
2022-09-21T16:24:45.044Z,100653.41
2022-09-21T16:27:16.245Z,100646.22
2022-09-21T16:29:44.093Z,100649.47
2022-09-21T16:32:20.108Z,100655.50
2022-09-21T16:34:48.365Z,100651.91
2022-09-21T16:37:26.819Z,100652.91
2022-09-21T16:39:58.302Z,100646.69
2022-09-21T16:42:31.325Z,100651.75
2022-09-21T16:44:58.593Z,100655.75
2022-09-21T16:47:26.512Z,100651.13
2022-09-21T16:49:56.510Z,100653.16
2022-09-21T16:52:24.043Z,100652.38
2022-09-21T16:54:51.030Z,100654.78
2022-09-21T16:57:18.066Z,100658.78
2022-09-21T16:59:46.663Z,100656.38
2022-09-21T17:02:14.459Z,100660.41
2022-09-21T17:04:41.553Z,100655.59
2022-09-21T17:07:15.144Z,100650.00
2022-09-21T17:09:46.483Z,100653.59
2022-09-21T17:12:16.772Z,100651.81
2022-09-21T17:14:46.744Z,100661.44
2022-09-21T17:17:17.418Z,100659.19
2022-09-21T17:19:46.639Z,100648.34
2022-09-21T17:22:19.679Z,100668.03
2022-09-21T17:24:51.372Z,100672.03
2022-09-21T17:27:22.848Z,100669.59
2022-09-21T17:29:53.778Z,100676.03
2022-09-21T17:32:21.799Z,100683.44
2022-09-21T17:35:00.690Z,100685.22
2022-09-21T17:37:27.818Z,100680.44
2022-09-21T17:39:54.746Z,100681.59
2022-09-21T17:42:23.079Z,100682.22
2022-09-21T17:44:59.674Z,100693.22
2022-09-21T17:47:31.228Z,100695.38
2022-09-21T17:50:02.478Z,100699.59
2022-09-21T17:52:48.907Z,100697.19
2022-09-21T17:55:16.091Z,100702.34
2022-09-21T17:57:52.851Z,100704.13
2022-09-21T18:00:22.185Z,100699.88
2022-09-21T18:02:49.735Z,100697.84
2022-09-21T18:05:26.800Z,100692.03
2022-09-21T18:07:54.202Z,100695.41
2022-09-21T18:10:22.052Z,100696.75
2022-09-21T18:12:57.828Z,100705.34
2022-09-21T18:15:31.449Z,100708.34
2022-09-21T18:18:13.740Z,100703.50
2022-09-21T18:20:56.894Z,100711.50
2022-09-21T18:23:33.081Z,100710.72
2022-09-21T18:26:00.593Z,100723.31
2022-09-21T18:28:39.595Z,100716.66
2022-09-21T18:31:06.659Z,100717.44
2022-09-21T18:33:56.879Z,100718.78
2022-09-21T18:36:31.570Z,100716.34
2022-09-21T18:39:05.726Z,100731.53
2022-09-21T18:41:36.411Z,100718.28
2022-09-21T18:44:20.089Z,100728.28
2022-09-21T18:47:00.162Z,100721.78
2022-09-21T18:49:45.275Z,100731.97
2022-09-21T18:52:20.103Z,100729.94
2022-09-21T18:54:47.355Z,100740.09
2022-09-21T18:57:15.036Z,100730.84
2022-09-21T18:59:41.873Z,100729.63
2022-09-21T19:02:14.806Z,100727.22
2022-09-21T19:04:44.105Z,100739.22
2022-09-21T19:07:27.680Z,100735.59
2022-09-21T19:10:00.335Z,100732.78
2022-09-21T19:12:38.641Z,100732.34
2022-09-21T19:15:14.919Z,100728.50
2022-09-21T19:18:00.533Z,100739.88
2022-09-21T19:20:49.816Z,100730.50
2022-09-21T19:23:32.016Z,100730.28
2022-09-21T19:26:02.940Z,100715.44
2022-09-21T19:28:38.647Z,100727.50
2022-09-21T19:31:11.430Z,100733.53
2022-09-21T19:33:49.880Z,100731.09
2022-09-21T19:36:20.348Z,100729.50
2022-09-21T19:38:48.191Z,100725.31
2022-09-21T19:41:19.333Z,100720.13
2022-09-21T19:44:12.708Z,100728.50
2022-09-21T19:46:58.350Z,100729.13
2022-09-21T19:49:29.517Z,100725.16
2022-09-21T19:51:57.037Z,100728.44
2022-09-21T19:54:43.743Z,100732.91
2022-09-21T19:57:47.960Z,100720.59
2022-09-21T20:00:17.011Z,100721.09
2022-09-21T20:02:48.935Z,100721.56
2022-09-21T20:05:23.439Z,100717.84
2022-09-21T20:08:21.189Z,100728.06
2022-09-21T20:11:14.414Z,100719.72
2022-09-21T20:13:44.508Z,100722.19
2022-09-21T20:16:23.575Z,100718.84
2022-09-21T20:18:55.009Z,100720.47
2022-09-21T20:21:22.435Z,100718.66
2022-09-21T20:23:58.161Z,100724.50
2022-09-21T20:26:26.356Z,100729.06
2022-09-21T20:28:53.768Z,100727.47
2022-09-21T20:31:24.939Z,100719.47
2022-09-21T20:33:52.354Z,100722.25
2022-09-21T20:36:19.211Z,100720.22
2022-09-21T20:38:46.007Z,100721.25
2022-09-21T20:41:14.272Z,100722.06
2022-09-21T20:43:41.374Z,100732.06
2022-09-21T20:46:11.488Z,100726.25
2022-09-21T20:48:38.749Z,100727.47
2022-09-21T20:51:06.451Z,100728.00
2022-09-21T20:53:33.911Z,100728.41
2022-09-21T20:56:02.071Z,100728.53
2022-09-21T20:58:30.688Z,100728.31
2022-09-21T21:01:02.929Z,100728.06
2022-09-21T21:03:30.124Z,100721.06
2022-09-21T21:06:13.950Z,100728.56
2022-09-21T21:08:41.301Z,100721.38
2022-09-21T21:11:08.109Z,100725.50
2022-09-21T21:13:35.308Z,100731.81
2022-09-21T21:16:08.157Z,100737.41
2022-09-21T21:18:39.216Z,100728.22
2022-09-21T21:21:06.379Z,100732.59
2022-09-21T21:23:53.151Z,100728.38
2022-09-21T21:26:23.960Z,100728.38
2022-09-21T21:29:00.456Z,100729.00
2022-09-21T21:31:27.768Z,100725.78
2022-09-21T21:33:54.547Z,100720.59
2022-09-21T21:36:21.335Z,100718.59
2022-09-21T21:38:48.448Z,100720.00
2022-09-21T21:41:15.485Z,100705.81
2022-09-21T21:43:42.311Z,100710.22
2022-09-21T21:46:10.416Z,100716.22
2022-09-21T21:48:38.129Z,100704.03
2022-09-21T21:51:05.630Z,100707.47
2022-09-21T21:53:34.611Z,100709.41
2022-09-21T21:56:02.375Z,100697.81
2022-09-21T21:58:29.222Z,100698.31
2022-09-21T22:00:57.527Z,100700.91
2022-09-21T22:03:24.335Z,100694.81
2022-09-21T22:05:55.191Z,100702.59
2022-09-21T22:08:22.249Z,100700.31
2022-09-21T22:10:50.058Z,100704.63
2022-09-21T22:13:18.053Z,100708.59
2022-09-21T22:15:45.518Z,100711.28
2022-09-21T22:18:12.566Z,100710.22
2022-09-21T22:20:40.635Z,100709.00
2022-09-21T22:23:09.115Z,100705.50
2022-09-21T22:25:36.095Z,100711.88
2022-09-21T22:28:03.108Z,100706.06
2022-09-21T22:30:30.265Z,100713.25
2022-09-21T22:32:57.097Z,100721.03
2022-09-21T22:35:24.319Z,100705.63
2022-09-21T22:37:54.692Z,100705.78
2022-09-21T22:40:21.720Z,100696.97
2022-09-21T22:42:48.858Z,100701.72
2022-09-21T22:45:16.007Z,100703.31
2022-09-21T22:47:42.761Z,100701.72
2022-09-21T22:50:09.610Z,100694.53
2022-09-21T22:52:36.789Z,100698.38
2022-09-21T22:55:03.808Z,100700.78
2022-09-21T22:57:30.590Z,100700.59
2022-09-21T22:59:57.614Z,100698.66
2022-09-21T23:02:25.439Z,100699.59
2022-09-21T23:04:52.320Z,100697.00
2022-09-21T23:07:19.474Z,100684.28
2022-09-21T23:09:46.163Z,100679.72
2022-09-21T23:12:13.011Z,100669.59
2022-09-21T23:14:40.303Z,100665.22
2022-09-21T23:17:07.287Z,100671.44
2022-09-21T23:19:34.137Z,100667.66
2022-09-21T23:22:01.339Z,100663.28
2022-09-21T23:24:28.137Z,100675.31
2022-09-21T23:26:55.393Z,100672.44
2022-09-21T23:29:22.918Z,100671.84
2022-09-21T23:31:50.106Z,100662.06
2022-09-21T23:34:16.955Z,100664.66
2022-09-21T23:36:44.540Z,100662.78
2022-09-21T23:39:13.400Z,100662.63
2022-09-21T23:41:40.494Z,100666.88
2022-09-21T23:44:07.540Z,100675.94
2022-09-21T23:46:35.903Z,100672.25
2022-09-21T23:49:03.088Z,100671.63
2022-09-21T23:51:30.123Z,100668.00
2022-09-21T23:53:57.374Z,100668.72
2022-09-21T23:56:24.624Z,100673.00
2022-09-21T23:58:51.988Z,100674.34
